sensor_id;sensor_type;location;lat;lon;timestamp;P1;durP1;ratioP1;P2;durP2;ratioP2
38085;SDS011;23896;50.678;10.924;2023-07-31T00:00:29;4.05;;;2.17;;
38085;SDS011;23896;50.678;10.924;2023-07-31T00:02:55;4.75;;;1.60;;
38085;SDS011;23896;50.678;10.924;2023-07-31T00:05:22;4.20;;;1.48;;
38085;SDS011;23896;50.678;10.924;2023-07-31T00:07:48;8.10;;;2.38;;
38085;SDS011;23896;50.678;10.924;2023-07-31T00:10:14;3.38;;;1.42;;
38085;SDS011;23896;50.678;10.924;2023-07-31T00:12:42;3.28;;;1.50;;
38085;SDS011;23896;50.678;10.924;2023-07-31T00:15:16;2.17;;;1.38;;
38085;SDS011;23896;50.678;10.924;2023-07-31T00:17:42;7.60;;;1.40;;
38085;SDS011;23896;50.678;10.924;2023-07-31T00:20:08;4.93;;;2.10;;
38085;SDS011;23896;50.678;10.924;2023-07-31T00:22:35;4.50;;;2.10;;
38085;SDS011;23896;50.678;10.924;2023-07-31T00:25:09;7.32;;;1.75;;
38085;SDS011;23896;50.678;10.924;2023-07-31T00:27:35;4.65;;;1.92;;
38085;SDS011;23896;50.678;10.924;2023-07-31T00:30:02;4.68;;;1.80;;
38085;SDS011;23896;50.678;10.924;2023-07-31T00:32:29;3.13;;;1.40;;
38085;SDS011;23896;50.678;10.924;2023-07-31T00:34:58;4.10;;;1.40;;
38085;SDS011;23896;50.678;10.924;2023-07-31T00:37:24;2.72;;;1.92;;
38085;SDS011;23896;50.678;10.924;2023-07-31T00:39:50;4.10;;;2.20;;
38085;SDS011;23896;50.678;10.924;2023-07-31T00:42:16;3.60;;;1.88;;
38085;SDS011;23896;50.678;10.924;2023-07-31T00:44:44;3.90;;;1.50;;
38085;SDS011;23896;50.678;10.924;2023-07-31T00:47:10;5.82;;;1.90;;
38085;SDS011;23896;50.678;10.924;2023-07-31T00:49:36;3.85;;;1.65;;
38085;SDS011;23896;50.678;10.924;2023-07-31T00:52:17;8.98;;;1.92;;
38085;SDS011;23896;50.678;10.924;2023-07-31T00:54:44;5.53;;;1.83;;
38085;SDS011;23896;50.678;10.924;2023-07-31T00:57:10;3.67;;;1.52;;
38085;SDS011;23896;50.678;10.924;2023-07-31T00:59:36;5.53;;;2.00;;
38085;SDS011;23896;50.678;10.924;2023-07-31T01:02:03;4.63;;;1.70;;
38085;SDS011;23896;50.678;10.924;2023-07-31T01:04:29;3.97;;;1.77;;
38085;SDS011;23896;50.678;10.924;2023-07-31T01:06:56;6.65;;;2.17;;
38085;SDS011;23896;50.678;10.924;2023-07-31T01:09:29;4.65;;;1.98;;
38085;SDS011;23896;50.678;10.924;2023-07-31T01:12:02;2.30;;;1.55;;
38085;SDS011;23896;50.678;10.924;2023-07-31T01:14:29;3.05;;;1.80;;
38085;SDS011;23896;50.678;10.924;2023-07-31T01:16:55;4.45;;;1.60;;
38085;SDS011;23896;50.678;10.924;2023-07-31T01:19:30;6.53;;;1.63;;
38085;SDS011;23896;50.678;10.924;2023-07-31T01:22:06;5.53;;;1.73;;
38085;SDS011;23896;50.678;10.924;2023-07-31T01:24:41;2.40;;;1.92;;
38085;SDS011;23896;50.678;10.924;2023-07-31T01:27:46;2.17;;;1.60;;
38085;SDS011;23896;50.678;10.924;2023-07-31T01:30:17;3.13;;;2.13;;
38085;SDS011;23896;50.678;10.924;2023-07-31T01:32:47;3.80;;;1.67;;
38085;SDS011;23896;50.678;10.924;2023-07-31T01:35:15;5.15;;;2.00;;
38085;SDS011;23896;50.678;10.924;2023-07-31T01:37:41;5.53;;;2.05;;
38085;SDS011;23896;50.678;10.924;2023-07-31T01:40:07;6.47;;;1.48;;
38085;SDS011;23896;50.678;10.924;2023-07-31T01:42:37;4.65;;;1.60;;
38085;SDS011;23896;50.678;10.924;2023-07-31T01:48:04;6.97;;;1.60;;
38085;SDS011;23896;50.678;10.924;2023-07-31T01:50:30;5.47;;;1.95;;
38085;SDS011;23896;50.678;10.924;2023-07-31T01:52:56;5.53;;;2.00;;
38085;SDS011;23896;50.678;10.924;2023-07-31T01:55:23;5.05;;;1.90;;
38085;SDS011;23896;50.678;10.924;2023-07-31T01:57:49;4.10;;;1.98;;
38085;SDS011;23896;50.678;10.924;2023-07-31T02:00:15;5.43;;;2.35;;
38085;SDS011;23896;50.678;10.924;2023-07-31T02:02:41;6.78;;;1.83;;
38085;SDS011;23896;50.678;10.924;2023-07-31T02:05:08;5.07;;;2.10;;
38085;SDS011;23896;50.678;10.924;2023-07-31T02:07:35;3.78;;;1.95;;
38085;SDS011;23896;50.678;10.924;2023-07-31T02:10:01;4.60;;;2.33;;
38085;SDS011;23896;50.678;10.924;2023-07-31T02:12:27;3.67;;;1.90;;
38085;SDS011;23896;50.678;10.924;2023-07-31T02:15:03;4.82;;;2.05;;
38085;SDS011;23896;50.678;10.924;2023-07-31T02:17:30;3.63;;;2.17;;
38085;SDS011;23896;50.678;10.924;2023-07-31T02:19:56;3.40;;;1.70;;
38085;SDS011;23896;50.678;10.924;2023-07-31T02:22:22;4.32;;;1.92;;
38085;SDS011;23896;50.678;10.924;2023-07-31T02:25:00;4.45;;;1.77;;
38085;SDS011;23896;50.678;10.924;2023-07-31T02:27:26;4.22;;;1.75;;
38085;SDS011;23896;50.678;10.924;2023-07-31T02:29:52;3.80;;;1.98;;
38085;SDS011;23896;50.678;10.924;2023-07-31T02:32:19;4.63;;;2.30;;
38085;SDS011;23896;50.678;10.924;2023-07-31T02:34:46;3.97;;;1.80;;
38085;SDS011;23896;50.678;10.924;2023-07-31T02:37:12;3.30;;;1.70;;
38085;SDS011;23896;50.678;10.924;2023-07-31T02:39:38;4.60;;;2.20;;
38085;SDS011;23896;50.678;10.924;2023-07-31T02:42:04;8.50;;;2.58;;
38085;SDS011;23896;50.678;10.924;2023-07-31T02:44:31;5.50;;;2.00;;
38085;SDS011;23896;50.678;10.924;2023-07-31T02:46:57;5.78;;;1.83;;
38085;SDS011;23896;50.678;10.924;2023-07-31T02:49:23;5.15;;;2.22;;
38085;SDS011;23896;50.678;10.924;2023-07-31T02:51:51;3.67;;;1.73;;
38085;SDS011;23896;50.678;10.924;2023-07-31T02:54:17;6.10;;;1.90;;
38085;SDS011;23896;50.678;10.924;2023-07-31T02:56:45;4.20;;;1.80;;
38085;SDS011;23896;50.678;10.924;2023-07-31T02:59:11;4.45;;;2.15;;
38085;SDS011;23896;50.678;10.924;2023-07-31T03:01:37;5.32;;;2.35;;
38085;SDS011;23896;50.678;10.924;2023-07-31T03:04:04;3.30;;;2.00;;
38085;SDS011;23896;50.678;10.924;2023-07-31T03:06:30;4.82;;;2.17;;
38085;SDS011;23896;50.678;10.924;2023-07-31T03:08:58;5.28;;;2.00;;
38085;SDS011;23896;50.678;10.924;2023-07-31T03:11:25;3.00;;;1.73;;
38085;SDS011;23896;50.678;10.924;2023-07-31T03:13:51;4.72;;;2.13;;
38085;SDS011;23896;50.678;10.924;2023-07-31T03:16:17;5.40;;;2.50;;
38085;SDS011;23896;50.678;10.924;2023-07-31T03:18:43;7.07;;;2.60;;
38085;SDS011;23896;50.678;10.924;2023-07-31T03:21:12;7.63;;;2.20;;
38085;SDS011;23896;50.678;10.924;2023-07-31T03:23:38;4.97;;;2.47;;
38085;SDS011;23896;50.678;10.924;2023-07-31T03:26:05;3.13;;;2.05;;
38085;SDS011;23896;50.678;10.924;2023-07-31T03:28:31;3.97;;;2.10;;
38085;SDS011;23896;50.678;10.924;2023-07-31T03:30:59;4.88;;;2.75;;
38085;SDS011;23896;50.678;10.924;2023-07-31T03:33:25;3.25;;;1.80;;
38085;SDS011;23896;50.678;10.924;2023-07-31T03:35:52;4.72;;;2.88;;
38085;SDS011;23896;50.678;10.924;2023-07-31T03:38:18;3.28;;;1.80;;
38085;SDS011;23896;50.678;10.924;2023-07-31T03:40:50;5.25;;;2.67;;
38085;SDS011;23896;50.678;10.924;2023-07-31T03:43:16;3.15;;;2.15;;
38085;SDS011;23896;50.678;10.924;2023-07-31T03:45:51;3.45;;;2.20;;
38085;SDS011;23896;50.678;10.924;2023-07-31T03:48:20;4.63;;;1.80;;
38085;SDS011;23896;50.678;10.924;2023-07-31T03:50:46;5.07;;;2.35;;
38085;SDS011;23896;50.678;10.924;2023-07-31T03:53:12;6.38;;;2.35;;
38085;SDS011;23896;50.678;10.924;2023-07-31T03:58:27;5.38;;;2.35;;
38085;SDS011;23896;50.678;10.924;2023-07-31T04:00:53;5.78;;;2.28;;
38085;SDS011;23896;50.678;10.924;2023-07-31T04:03:20;4.72;;;2.17;;
38085;SDS011;23896;50.678;10.924;2023-07-31T04:05:50;2.92;;;2.03;;
38085;SDS011;23896;50.678;10.924;2023-07-31T04:08:16;7.57;;;2.53;;
38085;SDS011;23896;50.678;10.924;2023-07-31T04:10:42;5.15;;;2.72;;
38085;SDS011;23896;50.678;10.924;2023-07-31T04:13:08;10.88;;;2.30;;
38085;SDS011;23896;50.678;10.924;2023-07-31T04:15:41;4.97;;;1.90;;
38085;SDS011;23896;50.678;10.924;2023-07-31T04:18:07;4.00;;;2.05;;
38085;SDS011;23896;50.678;10.924;2023-07-31T04:20:33;6.90;;;1.85;;
38085;SDS011;23896;50.678;10.924;2023-07-31T04:23:00;4.07;;;2.30;;
38085;SDS011;23896;50.678;10.924;2023-07-31T04:25:35;4.85;;;3.25;;
38085;SDS011;23896;50.678;10.924;2023-07-31T04:28:01;5.72;;;2.70;;
38085;SDS011;23896;50.678;10.924;2023-07-31T04:30:27;3.50;;;1.98;;
38085;SDS011;23896;50.678;10.924;2023-07-31T04:32:53;4.18;;;2.13;;
38085;SDS011;23896;50.678;10.924;2023-07-31T04:38:11;7.25;;;2.53;;
38085;SDS011;23896;50.678;10.924;2023-07-31T04:40:37;5.18;;;2.35;;
38085;SDS011;23896;50.678;10.924;2023-07-31T04:43:03;3.47;;;2.20;;
38085;SDS011;23896;50.678;10.924;2023-07-31T04:45:30;8.30;;;2.20;;
38085;SDS011;23896;50.678;10.924;2023-07-31T04:47:56;2.25;;;1.80;;
38085;SDS011;23896;50.678;10.924;2023-07-31T04:50:22;5.35;;;2.40;;
38085;SDS011;23896;50.678;10.924;2023-07-31T04:52:51;4.45;;;2.17;;
38085;SDS011;23896;50.678;10.924;2023-07-31T04:55:17;6.47;;;2.03;;
38085;SDS011;23896;50.678;10.924;2023-07-31T04:57:43;5.40;;;2.25;;
38085;SDS011;23896;50.678;10.924;2023-07-31T05:00:09;3.63;;;2.05;;
38085;SDS011;23896;50.678;10.924;2023-07-31T05:02:48;5.22;;;2.20;;
38085;SDS011;23896;50.678;10.924;2023-07-31T05:05:14;4.10;;;2.13;;
38085;SDS011;23896;50.678;10.924;2023-07-31T05:07:40;6.28;;;2.20;;
38085;SDS011;23896;50.678;10.924;2023-07-31T05:10:22;6.30;;;2.30;;
38085;SDS011;23896;50.678;10.924;2023-07-31T05:15:16;3.50;;;2.40;;
38085;SDS011;23896;50.678;10.924;2023-07-31T05:17:42;2.20;;;1.70;;
38085;SDS011;23896;50.678;10.924;2023-07-31T05:20:17;5.93;;;2.00;;
38085;SDS011;23896;50.678;10.924;2023-07-31T05:22:43;5.85;;;2.20;;
38085;SDS011;23896;50.678;10.924;2023-07-31T05:25:09;6.53;;;2.72;;
38085;SDS011;23896;50.678;10.924;2023-07-31T05:27:35;4.28;;;2.50;;
38085;SDS011;23896;50.678;10.924;2023-07-31T05:30:08;5.90;;;1.80;;
38085;SDS011;23896;50.678;10.924;2023-07-31T05:32:34;6.70;;;2.13;;
38085;SDS011;23896;50.678;10.924;2023-07-31T05:35:00;7.10;;;2.75;;
38085;SDS011;23896;50.678;10.924;2023-07-31T05:37:26;6.78;;;2.58;;
38085;SDS011;23896;50.678;10.924;2023-07-31T05:39:56;3.97;;;1.95;;
38085;SDS011;23896;50.678;10.924;2023-07-31T05:42:22;5.70;;;2.67;;
38085;SDS011;23896;50.678;10.924;2023-07-31T05:44:48;8.13;;;2.42;;
38085;SDS011;23896;50.678;10.924;2023-07-31T05:47:14;7.60;;;2.28;;
38085;SDS011;23896;50.678;10.924;2023-07-31T05:49:41;3.92;;;2.20;;
38085;SDS011;23896;50.678;10.924;2023-07-31T05:52:07;8.68;;;2.53;;
38085;SDS011;23896;50.678;10.924;2023-07-31T05:54:33;5.05;;;2.53;;
38085;SDS011;23896;50.678;10.924;2023-07-31T05:56:59;5.40;;;2.10;;
38085;SDS011;23896;50.678;10.924;2023-07-31T05:59:29;4.47;;;2.13;;
38085;SDS011;23896;50.678;10.924;2023-07-31T06:01:58;4.47;;;2.50;;
38085;SDS011;23896;50.678;10.924;2023-07-31T06:04:27;5.80;;;1.90;;
38085;SDS011;23896;50.678;10.924;2023-07-31T06:06:53;4.80;;;2.45;;
38085;SDS011;23896;50.678;10.924;2023-07-31T06:09:22;3.90;;;2.35;;
38085;SDS011;23896;50.678;10.924;2023-07-31T06:11:49;6.70;;;2.40;;
38085;SDS011;23896;50.678;10.924;2023-07-31T06:14:15;7.07;;;2.17;;
38085;SDS011;23896;50.678;10.924;2023-07-31T06:16:42;3.70;;;2.50;;
38085;SDS011;23896;50.678;10.924;2023-07-31T06:19:09;4.50;;;1.98;;
38085;SDS011;23896;50.678;10.924;2023-07-31T06:21:36;6.55;;;2.45;;
38085;SDS011;23896;50.678;10.924;2023-07-31T06:24:03;3.80;;;2.25;;
38085;SDS011;23896;50.678;10.924;2023-07-31T06:26:29;3.08;;;2.08;;
38085;SDS011;23896;50.678;10.924;2023-07-31T06:28:55;4.80;;;2.65;;
38085;SDS011;23896;50.678;10.924;2023-07-31T06:31:27;4.40;;;2.38;;
38085;SDS011;23896;50.678;10.924;2023-07-31T06:33:53;3.75;;;2.35;;
38085;SDS011;23896;50.678;10.924;2023-07-31T06:36:20;4.10;;;2.13;;
38085;SDS011;23896;50.678;10.924;2023-07-31T06:38:46;4.90;;;2.83;;
38085;SDS011;23896;50.678;10.924;2023-07-31T06:41:13;3.60;;;1.95;;
38085;SDS011;23896;50.678;10.924;2023-07-31T06:43:41;3.60;;;2.50;;
38085;SDS011;23896;50.678;10.924;2023-07-31T06:46:07;5.25;;;2.60;;
38085;SDS011;23896;50.678;10.924;2023-07-31T06:48:46;6.03;;;2.40;;
38085;SDS011;23896;50.678;10.924;2023-07-31T06:51:12;4.90;;;2.75;;
38085;SDS011;23896;50.678;10.924;2023-07-31T06:53:38;4.20;;;2.70;;
38085;SDS011;23896;50.678;10.924;2023-07-31T06:56:10;3.58;;;2.40;;
38085;SDS011;23896;50.678;10.924;2023-07-31T06:58:39;5.40;;;2.60;;
38085;SDS011;23896;50.678;10.924;2023-07-31T07:01:05;7.53;;;2.50;;
38085;SDS011;23896;50.678;10.924;2023-07-31T07:03:34;5.40;;;2.72;;
38085;SDS011;23896;50.678;10.924;2023-07-31T07:06:01;4.45;;;2.65;;
38085;SDS011;23896;50.678;10.924;2023-07-31T07:08:27;4.88;;;2.08;;
38085;SDS011;23896;50.678;10.924;2023-07-31T07:10:53;5.28;;;2.40;;
38085;SDS011;23896;50.678;10.924;2023-07-31T07:13:20;6.63;;;2.45;;
38085;SDS011;23896;50.678;10.924;2023-07-31T07:15:48;6.38;;;2.55;;
38085;SDS011;23896;50.678;10.924;2023-07-31T07:18:14;5.35;;;2.72;;
38085;SDS011;23896;50.678;10.924;2023-07-31T07:20:46;5.75;;;3.10;;
38085;SDS011;23896;50.678;10.924;2023-07-31T07:23:13;5.38;;;2.58;;
38085;SDS011;23896;50.678;10.924;2023-07-31T07:25:39;4.97;;;2.88;;
38085;SDS011;23896;50.678;10.924;2023-07-31T07:28:05;4.18;;;2.10;;
38085;SDS011;23896;50.678;10.924;2023-07-31T07:30:34;3.85;;;2.45;;
38085;SDS011;23896;50.678;10.924;2023-07-31T07:33:01;8.98;;;3.20;;
38085;SDS011;23896;50.678;10.924;2023-07-31T07:35:33;4.18;;;2.28;;
38085;SDS011;23896;50.678;10.924;2023-07-31T07:38:01;7.53;;;2.70;;
38085;SDS011;23896;50.678;10.924;2023-07-31T07:40:29;4.65;;;2.60;;
38085;SDS011;23896;50.678;10.924;2023-07-31T07:42:56;5.50;;;2.40;;
38085;SDS011;23896;50.678;10.924;2023-07-31T07:45:23;5.40;;;2.97;;
38085;SDS011;23896;50.678;10.924;2023-07-31T07:47:49;7.00;;;3.70;;
38085;SDS011;23896;50.678;10.924;2023-07-31T07:50:16;4.95;;;2.65;;
38085;SDS011;23896;50.678;10.924;2023-07-31T07:52:42;4.82;;;3.50;;
38085;SDS011;23896;50.678;10.924;2023-07-31T07:55:11;5.85;;;3.55;;
38085;SDS011;23896;50.678;10.924;2023-07-31T07:57:37;5.22;;;2.67;;
38085;SDS011;23896;50.678;10.924;2023-07-31T08:00:04;3.92;;;2.55;;
38085;SDS011;23896;50.678;10.924;2023-07-31T08:02:31;4.28;;;2.53;;
38085;SDS011;23896;50.678;10.924;2023-07-31T08:05:01;5.65;;;2.85;;
38085;SDS011;23896;50.678;10.924;2023-07-31T08:07:28;8.35;;;2.95;;
38085;SDS011;23896;50.678;10.924;2023-07-31T08:09:54;5.65;;;2.80;;
38085;SDS011;23896;50.678;10.924;2023-07-31T08:12:20;4.68;;;2.67;;
38085;SDS011;23896;50.678;10.924;2023-07-31T08:14:47;6.40;;;2.70;;
38085;SDS011;23896;50.678;10.924;2023-07-31T08:17:13;4.85;;;2.80;;
38085;SDS011;23896;50.678;10.924;2023-07-31T08:19:39;4.15;;;2.55;;
38085;SDS011;23896;50.678;10.924;2023-07-31T08:22:05;5.13;;;2.80;;
38085;SDS011;23896;50.678;10.924;2023-07-31T08:24:32;7.80;;;2.47;;
38085;SDS011;23896;50.678;10.924;2023-07-31T08:26:58;6.03;;;3.08;;
38085;SDS011;23896;50.678;10.924;2023-07-31T08:29:24;5.43;;;3.10;;
38085;SDS011;23896;50.678;10.924;2023-07-31T08:31:52;3.13;;;2.28;;
38085;SDS011;23896;50.678;10.924;2023-07-31T08:34:20;4.25;;;2.78;;
38085;SDS011;23896;50.678;10.924;2023-07-31T08:36:48;7.65;;;3.17;;
38085;SDS011;23896;50.678;10.924;2023-07-31T08:39:15;3.45;;;2.70;;
38085;SDS011;23896;50.678;10.924;2023-07-31T08:41:41;3.95;;;2.42;;
38085;SDS011;23896;50.678;10.924;2023-07-31T08:44:08;7.80;;;2.95;;
38085;SDS011;23896;50.678;10.924;2023-07-31T08:46:34;5.85;;;2.90;;
38085;SDS011;23896;50.678;10.924;2023-07-31T08:49:00;5.10;;;2.47;;
38085;SDS011;23896;50.678;10.924;2023-07-31T08:51:34;6.07;;;2.53;;
38085;SDS011;23896;50.678;10.924;2023-07-31T08:54:01;3.72;;;2.83;;
38085;SDS011;23896;50.678;10.924;2023-07-31T08:56:29;17.92;;;3.63;;
38085;SDS011;23896;50.678;10.924;2023-07-31T08:59:01;7.50;;;3.10;;
38085;SDS011;23896;50.678;10.924;2023-07-31T09:01:29;6.88;;;3.20;;
38085;SDS011;23896;50.678;10.924;2023-07-31T09:04:02;10.05;;;3.35;;
38085;SDS011;23896;50.678;10.924;2023-07-31T09:06:30;5.25;;;3.22;;
38085;SDS011;23896;50.678;10.924;2023-07-31T09:08:57;6.63;;;3.60;;
38085;SDS011;23896;50.678;10.924;2023-07-31T09:11:25;6.18;;;3.55;;
38085;SDS011;23896;50.678;10.924;2023-07-31T09:13:53;5.50;;;3.28;;
38085;SDS011;23896;50.678;10.924;2023-07-31T09:16:28;6.85;;;4.30;;
38085;SDS011;23896;50.678;10.924;2023-07-31T09:18:58;6.22;;;3.40;;
38085;SDS011;23896;50.678;10.924;2023-07-31T09:21:31;8.20;;;3.47;;
38085;SDS011;23896;50.678;10.924;2023-07-31T09:24:03;5.10;;;2.92;;
38085;SDS011;23896;50.678;10.924;2023-07-31T09:26:31;10.48;;;3.72;;
38085;SDS011;23896;50.678;10.924;2023-07-31T09:28:57;7.07;;;3.40;;
38085;SDS011;23896;50.678;10.924;2023-07-31T09:31:31;5.28;;;2.85;;
38085;SDS011;23896;50.678;10.924;2023-07-31T09:34:00;8.23;;;3.10;;
38085;SDS011;23896;50.678;10.924;2023-07-31T09:36:29;9.23;;;3.53;;
38085;SDS011;23896;50.678;10.924;2023-07-31T09:39:02;4.95;;;2.90;;
38085;SDS011;23896;50.678;10.924;2023-07-31T09:41:29;6.80;;;3.47;;
38085;SDS011;23896;50.678;10.924;2023-07-31T09:43:55;6.20;;;3.38;;
38085;SDS011;23896;50.678;10.924;2023-07-31T09:46:22;5.70;;;3.53;;
38085;SDS011;23896;50.678;10.924;2023-07-31T09:48:53;4.93;;;2.80;;
38085;SDS011;23896;50.678;10.924;2023-07-31T09:51:29;3.78;;;2.80;;
38085;SDS011;23896;50.678;10.924;2023-07-31T09:53:56;7.55;;;3.85;;
38085;SDS011;23896;50.678;10.924;2023-07-31T09:56:41;5.32;;;3.60;;
38085;SDS011;23896;50.678;10.924;2023-07-31T09:59:07;5.95;;;4.03;;
38085;SDS011;23896;50.678;10.924;2023-07-31T10:01:33;6.95;;;2.70;;
38085;SDS011;23896;50.678;10.924;2023-07-31T10:06:46;8.02;;;3.40;;
38085;SDS011;23896;50.678;10.924;2023-07-31T10:09:15;3.83;;;3.10;;
38085;SDS011;23896;50.678;10.924;2023-07-31T10:11:47;8.07;;;2.97;;
38085;SDS011;23896;50.678;10.924;2023-07-31T10:14:19;6.22;;;2.80;;
38085;SDS011;23896;50.678;10.924;2023-07-31T10:16:46;4.60;;;3.00;;
38085;SDS011;23896;50.678;10.924;2023-07-31T10:19:17;5.05;;;3.85;;
38085;SDS011;23896;50.678;10.924;2023-07-31T10:21:48;4.90;;;3.40;;
38085;SDS011;23896;50.678;10.924;2023-07-31T10:24:15;3.80;;;2.83;;
38085;SDS011;23896;50.678;10.924;2023-07-31T10:26:41;5.95;;;2.85;;
38085;SDS011;23896;50.678;10.924;2023-07-31T10:29:11;5.88;;;3.35;;
38085;SDS011;23896;50.678;10.924;2023-07-31T10:31:37;7.50;;;3.78;;
38085;SDS011;23896;50.678;10.924;2023-07-31T10:34:04;4.75;;;2.83;;
38085;SDS011;23896;50.678;10.924;2023-07-31T10:36:31;3.45;;;2.83;;
38085;SDS011;23896;50.678;10.924;2023-07-31T10:38:57;11.25;;;3.17;;
38085;SDS011;23896;50.678;10.924;2023-07-31T10:41:28;8.07;;;3.30;;
38085;SDS011;23896;50.678;10.924;2023-07-31T10:43:57;7.82;;;2.92;;
38085;SDS011;23896;50.678;10.924;2023-07-31T10:46:24;5.22;;;3.13;;
38085;SDS011;23896;50.678;10.924;2023-07-31T10:48:59;4.93;;;3.10;;
38085;SDS011;23896;50.678;10.924;2023-07-31T10:51:33;3.42;;;2.65;;
38085;SDS011;23896;50.678;10.924;2023-07-31T10:54:10;6.78;;;2.83;;
38085;SDS011;23896;50.678;10.924;2023-07-31T10:56:37;7.32;;;3.55;;
38085;SDS011;23896;50.678;10.924;2023-07-31T10:59:04;6.32;;;3.17;;
38085;SDS011;23896;50.678;10.924;2023-07-31T11:04:17;8.82;;;3.58;;
38085;SDS011;23896;50.678;10.924;2023-07-31T11:06:55;6.22;;;3.50;;
38085;SDS011;23896;50.678;10.924;2023-07-31T11:09:22;5.43;;;3.30;;
38085;SDS011;23896;50.678;10.924;2023-07-31T11:11:54;7.07;;;3.22;;
38085;SDS011;23896;50.678;10.924;2023-07-31T11:14:29;4.57;;;3.00;;
38085;SDS011;23896;50.678;10.924;2023-07-31T11:16:56;6.57;;;2.85;;
38085;SDS011;23896;50.678;10.924;2023-07-31T11:19:27;6.82;;;3.08;;
38085;SDS011;23896;50.678;10.924;2023-07-31T15:48:02;7.18;;;3.35;;
38085;SDS011;23896;50.678;10.924;2023-07-31T15:50:28;4.75;;;3.00;;
38085;SDS011;23896;50.678;10.924;2023-07-31T15:52:54;8.60;;;3.13;;
38085;SDS011;23896;50.678;10.924;2023-07-31T15:55:27;7.47;;;3.72;;
38085;SDS011;23896;50.678;10.924;2023-07-31T15:57:53;7.53;;;3.70;;
38085;SDS011;23896;50.678;10.924;2023-07-31T16:00:22;4.35;;;3.00;;
38085;SDS011;23896;50.678;10.924;2023-07-31T16:02:48;6.13;;;3.42;;
38085;SDS011;23896;50.678;10.924;2023-07-31T16:05:17;6.88;;;3.38;;
38085;SDS011;23896;50.678;10.924;2023-07-31T16:07:43;8.63;;;3.15;;
38085;SDS011;23896;50.678;10.924;2023-07-31T16:10:10;4.22;;;3.03;;
38085;SDS011;23896;50.678;10.924;2023-07-31T16:12:46;6.45;;;2.80;;
38085;SDS011;23896;50.678;10.924;2023-07-31T16:15:12;6.30;;;3.42;;
38085;SDS011;23896;50.678;10.924;2023-07-31T16:17:42;5.55;;;3.47;;
38085;SDS011;23896;50.678;10.924;2023-07-31T16:20:14;10.85;;;4.50;;
38085;SDS011;23896;50.678;10.924;2023-07-31T16:22:40;15.73;;;3.70;;
38085;SDS011;23896;50.678;10.924;2023-07-31T16:25:10;4.28;;;2.92;;
38085;SDS011;23896;50.678;10.924;2023-07-31T16:27:37;3.47;;;2.70;;
38085;SDS011;23896;50.678;10.924;2023-07-31T16:30:06;4.53;;;2.90;;
38085;SDS011;23896;50.678;10.924;2023-07-31T16:32:33;7.78;;;4.05;;
38085;SDS011;23896;50.678;10.924;2023-07-31T16:35:18;6.38;;;3.45;;
38085;SDS011;23896;50.678;10.924;2023-07-31T16:37:44;9.38;;;3.70;;
38085;SDS011;23896;50.678;10.924;2023-07-31T16:40:11;10.73;;;6.20;;
38085;SDS011;23896;50.678;10.924;2023-07-31T16:42:38;5.65;;;3.00;;
38085;SDS011;23896;50.678;10.924;2023-07-31T16:45:14;3.47;;;3.17;;
38085;SDS011;23896;50.678;10.924;2023-07-31T16:47:44;4.45;;;2.92;;
38085;SDS011;23896;50.678;10.924;2023-07-31T16:50:10;6.38;;;2.80;;
38085;SDS011;23896;50.678;10.924;2023-07-31T16:52:40;7.28;;;3.47;;
38085;SDS011;23896;50.678;10.924;2023-07-31T16:55:06;4.90;;;3.08;;
38085;SDS011;23896;50.678;10.924;2023-07-31T16:57:32;5.55;;;3.28;;
38085;SDS011;23896;50.678;10.924;2023-07-31T16:59:58;7.43;;;2.90;;
38085;SDS011;23896;50.678;10.924;2023-07-31T17:02:28;5.07;;;3.10;;
38085;SDS011;23896;50.678;10.924;2023-07-31T17:04:54;5.65;;;3.28;;
38085;SDS011;23896;50.678;10.924;2023-07-31T17:07:24;9.38;;;3.53;;
38085;SDS011;23896;50.678;10.924;2023-07-31T17:09:53;9.23;;;3.53;;
38085;SDS011;23896;50.678;10.924;2023-07-31T17:12:28;7.00;;;3.08;;
38085;SDS011;23896;50.678;10.924;2023-07-31T17:14:54;5.37;;;3.53;;
38085;SDS011;23896;50.678;10.924;2023-07-31T17:17:24;5.13;;;3.20;;
38085;SDS011;23896;50.678;10.924;2023-07-31T17:19:58;5.28;;;3.42;;
38085;SDS011;23896;50.678;10.924;2023-07-31T17:22:24;5.68;;;3.28;;
38085;SDS011;23896;50.678;10.924;2023-07-31T17:24:51;6.00;;;3.35;;
38085;SDS011;23896;50.678;10.924;2023-07-31T17:27:18;4.63;;;3.10;;
38085;SDS011;23896;50.678;10.924;2023-07-31T17:29:44;7.50;;;3.55;;
38085;SDS011;23896;50.678;10.924;2023-07-31T17:32:10;7.00;;;3.50;;
38085;SDS011;23896;50.678;10.924;2023-07-31T17:34:37;5.78;;;3.47;;
38085;SDS011;23896;50.678;10.924;2023-07-31T17:37:20;4.75;;;3.17;;
38085;SDS011;23896;50.678;10.924;2023-07-31T17:39:46;5.30;;;3.33;;
38085;SDS011;23896;50.678;10.924;2023-07-31T17:42:13;4.88;;;2.95;;
38085;SDS011;23896;50.678;10.924;2023-07-31T17:44:46;4.40;;;2.97;;
38085;SDS011;23896;50.678;10.924;2023-07-31T17:47:12;5.30;;;3.28;;
38085;SDS011;23896;50.678;10.924;2023-07-31T17:49:38;6.25;;;3.65;;
38085;SDS011;23896;50.678;10.924;2023-07-31T17:52:04;5.55;;;3.67;;
38085;SDS011;23896;50.678;10.924;2023-07-31T17:54:37;7.25;;;3.78;;
38085;SDS011;23896;50.678;10.924;2023-07-31T17:57:03;9.38;;;3.60;;
38085;SDS011;23896;50.678;10.924;2023-07-31T17:59:29;8.77;;;3.42;;
38085;SDS011;23896;50.678;10.924;2023-07-31T18:01:55;6.47;;;3.25;;
38085;SDS011;23896;50.678;10.924;2023-07-31T18:04:22;6.82;;;3.63;;
38085;SDS011;23896;50.678;10.924;2023-07-31T18:06:48;6.18;;;3.42;;
38085;SDS011;23896;50.678;10.924;2023-07-31T18:09:14;8.13;;;3.42;;
38085;SDS011;23896;50.678;10.924;2023-07-31T18:11:40;4.95;;;3.15;;
38085;SDS011;23896;50.678;10.924;2023-07-31T18:14:14;7.68;;;3.55;;
38085;SDS011;23896;50.678;10.924;2023-07-31T18:16:40;4.93;;;2.95;;
38085;SDS011;23896;50.678;10.924;2023-07-31T18:19:06;5.00;;;3.10;;
38085;SDS011;23896;50.678;10.924;2023-07-31T18:21:32;5.68;;;2.97;;
38085;SDS011;23896;50.678;10.924;2023-07-31T18:24:03;5.55;;;3.17;;
38085;SDS011;23896;50.678;10.924;2023-07-31T18:26:29;3.28;;;2.60;;
38085;SDS011;23896;50.678;10.924;2023-07-31T18:28:55;3.72;;;2.92;;
38085;SDS011;23896;50.678;10.924;2023-07-31T18:31:21;6.60;;;2.72;;
38085;SDS011;23896;50.678;10.924;2023-07-31T18:33:52;4.07;;;2.53;;
38085;SDS011;23896;50.678;10.924;2023-07-31T18:36:18;5.63;;;3.78;;
38085;SDS011;23896;50.678;10.924;2023-07-31T18:38:44;5.93;;;2.90;;
38085;SDS011;23896;50.678;10.924;2023-07-31T18:41:12;4.85;;;2.60;;
38085;SDS011;23896;50.678;10.924;2023-07-31T18:43:38;6.78;;;2.90;;
38085;SDS011;23896;50.678;10.924;2023-07-31T18:46:04;3.38;;;2.58;;
38085;SDS011;23896;50.678;10.924;2023-07-31T18:48:35;4.88;;;2.90;;
38085;SDS011;23896;50.678;10.924;2023-07-31T18:51:01;4.15;;;3.00;;
38085;SDS011;23896;50.678;10.924;2023-07-31T18:53:27;5.38;;;3.25;;
38085;SDS011;23896;50.678;10.924;2023-07-31T18:55:54;5.53;;;2.67;;
38085;SDS011;23896;50.678;10.924;2023-07-31T18:58:21;3.08;;;2.38;;
38085;SDS011;23896;50.678;10.924;2023-07-31T19:00:47;4.72;;;2.60;;
38085;SDS011;23896;50.678;10.924;2023-07-31T19:03:14;5.60;;;3.35;;
38085;SDS011;23896;50.678;10.924;2023-07-31T19:05:41;6.47;;;3.30;;
38085;SDS011;23896;50.678;10.924;2023-07-31T19:08:07;6.60;;;3.20;;
38085;SDS011;23896;50.678;10.924;2023-07-31T19:10:34;5.80;;;3.22;;
38085;SDS011;23896;50.678;10.924;2023-07-31T19:13:00;3.67;;;2.78;;
38085;SDS011;23896;50.678;10.924;2023-07-31T19:15:31;4.47;;;2.88;;
38085;SDS011;23896;50.678;10.924;2023-07-31T19:17:58;3.47;;;2.70;;
38085;SDS011;23896;50.678;10.924;2023-07-31T19:20:27;5.53;;;2.58;;